Terminal Aerodrome Forecast
Issued by NWS Midland/Odessa, TX

Home | Current Version | Previous Version | Text Only | Print | Product List | Glossary On
Versions: 1 2 3 4 5 6 7 8 9 10 11 12
835
FTUS44 KMAF 232321
TAFMAF
TAF
KMAF 232321Z 2400/2424 13009KT P6SM SKC
     FM241500 19015KT P6SM SKC=

USA.gov is the U.S. government's official web portal to all federal, state and local government web resources and services.